Time;durP1;ratioP1;P1;durP2;ratioP2;P2;SDS_P1;SDS_P2;PMS_P1;PMS_P2;Temp;Humidity;BMP_temperature;BMP_pressure;BME280_temperature;BME280_humidity;BME280_pressure;Samples;Min_cycle;Max_cycle;Signal;HPM_P1;HPM_P2
2020/12/04 00:02:19;;;;;;;;;22.50;20.50;;;;;20.41;58.62;99535.53;5071000;28;10698;-68
2020/12/04 00:04:48;;;;;;;;;27.00;24.25;;;;;20.47;58.62;99542.31;5071849;28;10914;-68
2020/12/04 00:07:16;;;;;;;;;31.50;23.50;;;;;20.47;58.77;99533.50;5071510;28;11073;-68
2020/12/04 00:09:45;;;;;;;;;25.75;24.00;;;;;20.46;59.44;99535.38;5071048;28;10891;-68
2020/12/04 00:12:13;;;;;;;;;30.75;27.50;;;;;20.48;58.43;99543.09;5069898;28;11023;-68
2020/12/04 00:14:42;;;;;;;;;30.75;26.50;;;;;20.47;59.05;99550.34;5069072;28;10826;-68
2020/12/04 00:17:10;;;;;;;;;29.75;28.00;;;;;20.46;58.81;99553.34;5069390;28;11596;-68
2020/12/04 00:19:39;;;;;;;;;24.75;22.00;;;;;20.48;58.57;99551.16;5070061;28;10883;-68
2020/12/04 00:22:07;;;;;;;;;33.50;26.75;;;;;20.46;58.98;99556.03;5070703;28;10782;-67
2020/12/04 00:24:36;;;;;;;;;26.25;26.00;;;;;20.48;59.08;99556.50;5070209;28;11013;-68
2020/12/04 00:27:04;;;;;;;;;23.75;19.75;;;;;20.45;59.11;99551.78;5068158;28;10821;-68
2020/12/04 00:29:32;;;;;;;;;26.25;24.00;;;;;20.47;59.05;99558.41;5069495;28;10972;-68
2020/12/04 00:32:01;;;;;;;;;25.50;24.50;;;;;20.50;58.63;99544.38;5068290;28;10877;-68
2020/12/04 00:34:30;;;;;;;;;25.50;21.50;;;;;20.64;59.04;99557.66;5067353;28;10715;-68
2020/12/04 00:36:58;;;;;;;;;23.00;19.00;;;;;20.72;58.48;99558.75;5069741;28;10801;-70
2020/12/04 00:39:27;;;;;;;;;25.00;20.50;;;;;20.76;58.15;99560.50;5068620;28;10875;-68
2020/12/04 00:42:01;;;;;;;;;28.25;20.25;;;;;20.79;58.08;99554.50;5069091;28;10842;-68
2020/12/04 00:44:30;;;;;;;;;27.50;23.00;;;;;20.81;57.99;99557.63;5067581;28;10872;-69
2020/12/04 00:47:00;;;;;;;;;24.00;22.50;;;;;20.90;57.74;99575.63;5067780;28;11375;-71
2020/12/04 00:49:29;;;;;;;;;20.00;19.75;;;;;20.90;57.81;99567.59;5064967;28;10746;-70
2020/12/04 00:51:57;;;;;;;;;25.00;22.00;;;;;20.94;57.98;99581.94;5068605;28;10609;-70
2020/12/04 00:54:26;;;;;;;;;22.25;19.50;;;;;20.95;57.74;99572.78;5067935;28;10651;-72
2020/12/04 00:56:55;;;;;;;;;23.75;20.50;;;;;20.93;57.97;99577.69;5066229;28;11387;-70
2020/12/04 00:59:23;;;;;;;;;21.75;18.50;;;;;20.94;57.75;99579.25;5067122;28;10670;-71
2020/12/04 01:01:51;;;;;;;;;15.00;10.50;;;;;21.01;58.00;99585.72;5064904;28;10639;-70
2020/12/04 01:04:19;;;;;;;;;24.00;23.50;;;;;21.07;57.59;99591.72;5063809;28;11567;-70
2020/12/04 01:06:51;;;;;;;;;25.50;21.75;;;;;21.06;57.64;99579.41;5066352;28;10708;-70
2020/12/04 01:09:22;;;;;;;;;26.75;24.25;;;;;21.12;57.62;99594.25;5068627;28;10857;-70
2020/12/04 01:11:51;;;;;;;;;17.50;13.50;;;;;21.17;57.50;99600.25;5067725;28;10749;-69
2020/12/04 01:14:20;;;;;;;;;22.50;20.00;;;;;21.20;57.26;99598.03;5068555;28;10724;-69
2020/12/04 01:16:48;;;;;;;;;22.25;19.75;;;;;21.23;57.34;99603.59;5068044;28;10967;-71
2020/12/04 01:19:17;;;;;;;;;21.75;17.75;;;;;21.27;57.44;99603.75;5067756;28;10682;-67
2020/12/04 01:21:49;;;;;;;;;22.75;18.00;;;;;21.25;57.22;99603.28;5068226;28;10661;-69
2020/12/04 01:24:18;;;;;;;;;22.00;19.75;;;;;21.34;57.22;99612.91;5069497;28;10633;-69
2020/12/04 01:26:46;;;;;;;;;22.75;19.50;;;;;21.32;57.20;99611.66;5067740;28;10661;-68
2020/12/04 01:29:14;;;;;;;;;22.00;18.00;;;;;21.39;56.93;99620.00;5068478;28;10720;-69
2020/12/04 01:31:49;;;;;;;;;13.50;13.50;;;;;21.43;56.79;99632.50;5068547;28;10788;-70
2020/12/04 01:34:18;;;;;;;;;24.25;22.00;;;;;21.40;56.74;99625.06;5068075;28;10532;-69
2020/12/04 01:36:49;;;;;;;;;21.75;16.00;;;;;21.46;56.66;99633.75;5068981;28;10681;-69
2020/12/04 01:39:18;;;;;;;;;17.75;16.50;;;;;21.51;56.56;99635.47;5068797;28;10615;-69
2020/12/04 01:41:47;;;;;;;;;17.50;14.75;;;;;21.57;56.49;99639.59;5068150;28;10604;-68
2020/12/04 01:44:15;;;;;;;;;19.50;15.75;;;;;21.63;56.44;99643.69;5068790;28;10334;-70
2020/12/04 01:46:44;;;;;;;;;16.25;16.25;;;;;21.67;56.18;99631.19;5083103;28;10416;-68
2020/12/04 01:49:15;;;;;;;;;18.75;18.00;;;;;21.69;55.94;99643.19;5093318;28;10523;-68
2020/12/04 01:51:43;;;;;;;;;19.25;16.75;;;;;21.74;55.81;99631.50;5082003;28;10245;-69
2020/12/04 01:54:15;;;;;;;;;21.50;19.50;;;;;21.76;55.79;99621.22;5073329;28;10424;-70
2020/12/04 01:56:45;;;;;;;;;12.25;7.75;;;;;21.82;55.71;99641.44;5072660;28;10424;-69
2020/12/04 01:59:14;;;;;;;;;16.00;15.25;;;;;21.85;55.67;99635.44;5073368;28;10307;-69
2020/12/04 02:01:44;;;;;;;;;17.50;15.00;;;;;21.85;55.61;99623.91;5072246;28;10919;-69
2020/12/04 02:04:15;;;;;;;;;16.25;13.25;;;;;21.84;55.83;99617.75;5073229;28;10232;-68
2020/12/04 02:06:57;;;;;;;;;22.00;19.00;;;;;21.93;55.24;99623.88;5073999;28;10298;-67
2020/12/04 02:09:32;;;;;;;;;19.00;16.50;;;;;21.94;55.22;99625.47;5071857;28;11178;-68
2020/12/04 02:12:04;;;;;;;;;21.50;16.75;;;;;21.97;55.49;99630.19;5072301;28;10238;-69
2020/12/04 02:14:33;;;;;;;;;17.25;15.50;;;;;22.03;55.27;99623.56;5087859;28;10172;-68
2020/12/04 02:17:05;;;;;;;;;18.00;15.25;;;;;22.03;55.27;99623.56;5064712;28;10336;-69
2020/12/04 02:19:42;;;;;;;;;22.50;16.25;;;;;22.11;54.93;99619.25;5071243;28;10243;-70
2020/12/04 02:22:12;;;;;;;;;15.75;14.00;;;;;22.11;54.90;99613.88;5074407;28;10173;-69
2020/12/04 02:24:41;;;;;;;;;17.00;14.75;;;;;22.12;54.85;99610.88;5073856;28;10351;-68
2020/12/04 02:27:13;;;;;;;;;14.25;12.75;;;;;22.22;54.67;99619.69;5073461;28;10254;-68
2020/12/04 02:29:45;;;;;;;;;14.75;14.75;;;;;22.25;54.55;99613.66;5074227;28;10199;-70
2020/12/04 02:32:14;;;;;;;;;19.00;14.50;;;;;22.26;54.68;99601.81;5070796;28;10072;-69
2020/12/04 02:34:43;;;;;;;;;18.75;13.50;;;;;22.26;54.58;99604.50;5073381;28;10074;-69
2020/12/04 02:37:12;;;;;;;;;14.50;13.75;;;;;22.44;54.44;99619.44;5073362;28;10160;-69
2020/12/04 02:39:41;;;;;;;;;19.00;14.75;;;;;22.46;54.28;99615.31;5073384;28;10162;-68
2020/12/04 02:42:09;;;;;;;;;14.75;13.75;;;;;22.50;54.16;99604.69;5073162;28;9932;-68
2020/12/04 02:44:38;;;;;;;;;15.25;12.75;;;;;22.53;53.80;99605.94;5072905;28;10824;-68
2020/12/04 02:47:06;;;;;;;;;13.00;12.75;;;;;22.55;53.15;99604.50;5072628;28;9922;-68
2020/12/04 02:49:35;;;;;;;;;7.00;7.00;;;;;22.56;53.71;99600.72;5068546;28;10928;-69
2020/12/04 02:52:03;;;;;;;;;15.50;15.00;;;;;22.64;53.49;99605.25;5072457;28;10035;-69
2020/12/04 02:54:32;;;;;;;;;20.25;13.00;;;;;22.60;53.41;99587.41;5087887;28;10234;-68
2020/12/04 02:57:00;;;;;;;;;17.25;14.50;;;;;22.69;53.25;99599.69;5072390;28;10042;-68
2020/12/04 02:59:29;;;;;;;;;17.50;13.50;;;;;22.70;53.13;99587.03;5072565;28;9926;-69
2020/12/04 03:01:57;;;;;;;;;12.25;11.50;;;;;22.72;52.91;99590.19;5072469;28;9988;-69
2020/12/04 03:04:25;;;;;;;;;11.50;11.00;;;;;22.80;52.58;99597.44;5072717;28;9934;-68
2020/12/04 03:06:54;;;;;;;;;11.25;11.25;;;;;22.82;52.77;99589.03;5070259;28;9835;-69
2020/12/04 03:09:23;;;;;;;;;15.75;14.50;;;;;22.85;52.67;99572.25;5072579;28;9781;-68
2020/12/04 03:11:55;;;;;;;;;12.50;12.50;;;;;22.92;50.97;99599.41;5072105;28;10013;-69
2020/12/04 03:14:25;;;;;;;;;12.50;10.75;;;;;22.99;52.25;99591.59;5072208;28;9712;-68
2020/12/04 03:16:54;;;;;;;;;18.25;16.00;;;;;22.98;51.95;99592.72;5069735;28;9675;-69
2020/12/04 03:19:22;;;;;;;;;18.50;13.00;;;;;23.01;51.70;99592.84;5087254;28;9749;-69
2020/12/04 03:21:50;;;;;;;;;15.25;12.00;;;;;23.06;51.68;99589.19;5070364;28;9710;-68
2020/12/04 03:24:18;;;;;;;;;11.75;9.00;;;;;23.10;51.36;99590.09;5071582;28;9981;-70
2020/12/04 03:26:47;;;;;;;;;16.00;15.00;;;;;23.14;51.57;99588.31;5067550;28;9571;-72
2020/12/04 03:29:15;;;;;;;;;3.75;2.00;;;;;23.16;51.37;99572.63;5069865;28;9849;-71
2020/12/04 03:31:43;;;;;;;;;14.00;12.50;;;;;23.20;51.24;99572.75;5070744;28;9770;-70
2020/12/04 03:34:12;;;;;;;;;10.25;9.00;;;;;23.23;51.10;99572.88;5072083;28;9853;-69
2020/12/04 03:36:40;;;;;;;;;14.25;11.25;;;;;23.28;51.02;99570.00;5071992;28;9859;-69
2020/12/04 03:39:08;;;;;;;;;12.25;9.50;;;;;23.36;50.82;99566.44;5070122;28;9696;-69
2020/12/04 03:41:36;;;;;;;;;16.50;10.75;;;;;23.36;50.41;99558.34;5071729;28;9792;-70
2020/12/04 03:44:06;;;;;;;;;10.00;8.25;;;;;23.40;50.39;99545.03;5072400;28;9766;-70
2020/12/04 03:46:34;;;;;;;;;13.75;10.75;;;;;23.40;50.38;99529.63;5071720;28;9689;-71
2020/12/04 03:49:03;;;;;;;;;11.00;8.00;;;;;23.47;47.94;99537.16;5072253;28;9536;-69
2020/12/04 03:51:31;;;;;;;;;12.75;11.00;;;;;23.56;50.31;99534.41;5069700;28;9791;-69
2020/12/04 03:53:59;;;;;;;;;17.00;12.00;;;;;23.61;49.99;99534.97;5070618;28;10133;-70
2020/12/04 03:56:27;;;;;;;;;8.00;7.25;;;;;23.55;49.58;99509.38;5070324;28;9921;-70
2020/12/04 03:58:56;;;;;;;;;15.75;12.75;;;;;23.60;47.50;99525.31;5069953;28;10041;-69
2020/12/04 04:01:28;;;;;;;;;11.25;7.00;;;;;23.67;49.46;99522.09;5070508;28;9693;-69
2020/12/04 04:03:57;;;;;;;;;13.00;11.25;;;;;23.70;49.11;99514.13;5070821;28;10656;-69
2020/12/04 04:06:26;;;;;;;;;16.25;14.00;;;;;23.74;49.14;99512.31;5070688;28;9626;-70
2020/12/04 04:08:54;;;;;;;;;11.25;9.50;;;;;23.78;49.21;99504.38;5069673;28;9549;-70
2020/12/04 04:11:22;;;;;;;;;6.75;6.75;;;;;23.80;49.33;99499.44;5069733;28;9453;-70
2020/12/04 04:13:51;;;;;;;;;12.00;11.75;;;;;23.86;49.13;99497.28;5071935;28;9616;-69
2020/12/04 04:16:20;;;;;;;;;14.25;12.50;;;;;23.92;48.36;99495.94;5071516;28;9512;-69
2020/12/04 04:18:48;;;;;;;;;10.75;9.75;;;;;23.90;48.87;99474.72;5071365;28;10329;-69
2020/12/04 04:21:16;;;;;;;;;11.25;11.25;;;;;23.99;48.28;99491.56;5071840;28;9533;-69
2020/12/04 04:23:45;;;;;;;;;12.75;9.50;;;;;24.04;49.06;99480.56;5071863;28;9624;-69
2020/12/04 04:26:13;;;;;;;;;10.33;6.00;;;;;24.01;49.09;99459.69;5072208;28;9535;-69
2020/12/04 04:28:41;;;;;;;;;10.75;9.75;;;;;24.09;48.27;99458.00;5072168;28;9381;-69
2020/12/04 04:31:09;;;;;;;;;10.67;9.00;;;;;24.14;49.01;99454.28;5071931;28;9462;-68
2020/12/04 04:33:38;;;;;;;;;13.67;10.00;;;;;24.24;48.71;99460.00;5086966;28;9372;-67
2020/12/04 04:36:08;;;;;;;;;16.33;11.33;;;;;24.26;48.41;99455.06;5071619;28;9457;-69
2020/12/04 04:38:38;;;;;;;;;13.00;11.00;;;;;24.28;48.52;99439.34;5071700;28;9401;-68
2020/12/04 04:41:07;;;;;;;;;12.00;10.00;;;;;24.28;48.83;99438.56;5086042;28;9413;-68
2020/12/04 04:43:35;;;;;;;;;11.33;10.33;;;;;24.34;47.50;99424.50;5071007;28;9484;-68
2020/12/04 04:46:24;;;;;;;;;8.67;8.00;;;;;24.44;48.44;99423.25;5070630;28;9402;-68
2020/12/04 04:48:59;;;;;;;;;15.33;12.33;;;;;24.49;48.45;99420.31;5070810;28;9270;-67
2020/12/04 04:51:28;;;;;;;;;13.00;13.00;;;;;24.52;48.32;99413.44;5070466;28;9321;-68
2020/12/04 04:53:58;;;;;;;;;12.75;10.00;;;;;24.57;48.21;99410.50;5070436;28;9545;-69
2020/12/04 04:56:27;;;;;;;;;10.67;10.67;;;;;24.59;48.07;99406.31;5070469;28;9632;-68
2020/12/04 04:58:55;;;;;;;;;12.00;8.00;;;;;24.55;47.77;99391.19;5085494;28;10210;-68
2020/12/04 05:01:23;;;;;;;;;17.00;14.50;;;;;24.66;48.10;99395.72;5084249;28;9301;-68
2020/12/04 05:03:59;;;;;;;;;12.75;12.25;;;;;24.69;47.60;99378.06;5069003;28;9622;-68
2020/12/04 05:06:35;;;;;;;;;14.50;12.25;;;;;24.70;47.45;99383.09;5069030;28;9482;-67
2020/12/04 05:09:06;;;;;;;;;20.33;14.33;;;;;24.72;47.35;99374.66;5067664;28;9454;-69
2020/12/04 05:11:36;;;;;;;;;13.00;13.00;;;;;24.74;47.34;99364.31;5067724;28;9327;-67
2020/12/04 05:14:23;;;;;;;;;13.00;13.00;;;;;24.78;47.29;99359.00;5068641;28;9233;-68
2020/12/04 05:16:55;;;;;;;;;8.67;8.67;;;;;24.84;47.25;99355.72;5068774;28;9313;-68
2020/12/04 05:19:32;;;;;;;;;12.33;9.00;;;;;24.85;47.50;99349.19;5066964;28;9191;-69
2020/12/04 05:22:14;;;;;;;;;11.33;8.67;;;;;24.89;46.96;99344.66;5068822;28;9475;-68
2020/12/04 05:24:45;;;;;;;;;13.00;10.33;;;;;24.78;47.31;99322.00;5067726;28;9246;-69
2020/12/04 05:27:33;;;;;;;;;14.00;10.00;;;;;24.90;47.18;99331.94;5065735;28;10055;-68
2020/12/04 05:30:01;;;;;;;;;11.00;11.00;;;;;24.91;46.83;99314.63;5068364;28;9234;-68
2020/12/04 05:32:30;;;;;;;;;8.67;8.67;;;;;24.99;47.02;99317.19;5068650;28;9312;-67
2020/12/04 05:35:08;;;;;;;;;13.00;11.33;;;;;25.08;47.43;99308.91;5069663;28;9316;-67
2020/12/04 05:37:37;;;;;;;;;14.33;11.00;;;;;25.14;47.08;99307.50;5068972;28;9340;-67
2020/12/04 05:40:07;;;;;;;;;14.00;13.00;;;;;25.16;47.14;99294.44;5069797;28;9355;-68
2020/12/04 05:42:42;;;;;;;;;11.67;11.00;;;;;25.23;46.81;99293.84;5071087;28;9353;-68
2020/12/04 05:45:10;;;;;;;;;10.67;10.67;;;;;25.25;46.85;99276.16;5069783;28;9242;-68
2020/12/04 05:47:41;;;;;;;;;10.33;9.00;;;;;25.31;46.98;99273.97;5069116;28;8935;-68
2020/12/04 05:50:11;;;;;;;;;15.33;13.33;;;;;25.36;46.70;99273.69;5069714;28;9171;-68
2020/12/04 05:52:40;;;;;;;;;11.00;10.00;;;;;25.39;46.77;99264.09;5086047;28;9175;-67
2020/12/04 05:55:10;;;;;;;;;21.00;21.00;;;;;25.42;45.27;99253.38;5071094;28;9294;-68
2020/12/04 05:57:52;;;;;;;;;14.00;11.00;;;;;25.49;46.27;99245.44;5069755;28;9651;-68
2020/12/04 06:00:22;;;;;;;;;11.67;11.67;;;;;25.58;44.95;99243.31;5069197;28;9340;-67
2020/12/04 06:03:00;;;;;;;;;12.00;10.67;;;;;25.65;45.58;99240.00;5069076;28;9131;-67
2020/12/04 06:05:30;;;;;;;;;10.00;10.00;;;;;25.71;46.30;99233.19;5067144;28;9737;-67
2020/12/04 06:08:02;;;;;;;;;15.33;12.00;;;;;25.74;46.22;99218.19;5066183;28;9094;-68
2020/12/04 06:10:33;;;;;;;;;9.33;9.00;;;;;25.73;46.24;99225.50;5068286;28;9080;-68
2020/12/04 06:13:02;;;;;;;;;11.67;11.67;;;;;25.67;46.04;99221.50;5066364;28;9014;-68
2020/12/04 06:15:33;;;;;;;;;12.00;10.00;;;;;25.63;45.86;99217.94;5067116;28;9159;-68
2020/12/04 06:18:13;;;;;;;;;12.00;10.67;;;;;25.60;45.81;99200.50;5068736;28;8988;-68
2020/12/04 06:20:53;;;;;;;;;11.33;11.33;;;;;25.65;45.88;99202.97;5068808;28;9706;-68
2020/12/04 06:23:23;;;;;;;;;11.33;9.67;;;;;25.69;46.06;99192.22;5068095;28;8926;-67
2020/12/04 06:26:01;;;;;;;;;7.00;6.50;;;;;25.67;45.51;99175.59;5069493;28;8900;-68
2020/12/04 06:28:32;;;;;;;;;12.50;12.00;;;;;25.71;45.34;99179.13;5061145;28;9060;-68
2020/12/04 06:31:08;;;;;;;;;11.75;9.25;;;;;25.75;45.55;99180.00;5067290;28;8864;-70
2020/12/04 06:33:49;;;;;;;;;11.25;10.00;;;;;25.79;45.15;99161.94;5058903;28;8851;-68
2020/12/04 06:36:34;;;;;;;;;8.25;7.50;;;;;25.93;45.32;99173.00;5070442;28;8832;-67
2020/12/04 06:39:06;;;;;;;;;12.00;10.75;;;;;25.99;45.19;99154.56;5070401;28;8848;-68
2020/12/04 06:41:46;;;;;;;;;11.00;10.00;;;;;26.09;45.18;99159.34;5072978;28;8839;-68
2020/12/04 06:44:20;;;;;;;;;10.75;10.75;;;;;26.16;45.28;99156.78;5089944;28;8838;-68
2020/12/04 06:46:59;;;;;;;;;8.25;8.00;;;;;26.19;45.11;99153.34;5077928;28;8856;-67
2020/12/04 06:49:40;;;;;;;;;12.25;10.00;;;;;26.26;45.21;99142.66;5079257;28;8844;-67
2020/12/04 06:52:18;;;;;;;;;10.75;10.75;;;;;26.30;44.85;99143.50;5070206;28;8933;-68
2020/12/04 06:54:48;;;;;;;;;10.25;7.75;;;;;26.20;44.74;99133.28;5070862;28;8843;-68
2020/12/04 06:57:20;;;;;;;;;8.00;7.00;;;;;26.22;44.85;99133.69;5071615;28;8851;-68
2020/12/04 06:59:49;;;;;;;;;12.00;10.00;;;;;26.21;43.37;99128.66;5070491;28;8824;-68
2020/12/04 07:02:19;;;;;;;;;11.25;9.75;;;;;26.25;44.76;99121.38;5072831;28;8939;-68
2020/12/04 07:04:50;;;;;;;;;10.50;10.25;;;;;26.29;44.59;99128.41;5070034;28;8848;-68
2020/12/04 07:07:26;;;;;;;;;13.25;11.75;;;;;26.32;44.72;99122.31;5079258;28;8959;-68
2020/12/04 07:10:01;;;;;;;;;12.00;12.00;;;;;26.29;44.68;99119.50;5077158;28;8855;-68
2020/12/04 07:12:31;;;;;;;;;13.00;9.00;;;;;26.12;44.71;99104.56;5074012;28;8832;-67
2020/12/04 07:15:00;;;;;;;;;10.50;10.50;;;;;26.17;44.11;99122.41;5082535;28;8856;-68
2020/12/04 07:17:30;;;;;;;;;12.00;11.75;;;;;26.03;44.44;99098.63;5083426;28;9656;-68
2020/12/04 07:19:59;;;;;;;;;16.00;12.25;;;;;26.04;44.58;99121.03;5082732;28;8920;-68
2020/12/04 07:22:28;;;;;;;;;13.50;10.00;;;;;25.96;44.38;99103.94;5082193;28;9541;-68
2020/12/04 07:24:57;;;;;;;;;11.75;11.75;;;;;26.13;44.67;99116.16;5083088;28;8992;-68
2020/12/04 07:27:30;;;;;;;;;13.00;12.00;;;;;26.20;44.51;99113.56;5082303;28;8828;-69
2020/12/04 07:29:58;;;;;;;;;15.75;11.00;;;;;26.21;44.48;99115.13;5082907;28;8857;-68
2020/12/04 07:32:28;;;;;;;;;11.75;10.50;;;;;26.23;44.31;99115.56;5083706;28;8848;-69
2020/12/04 07:34:56;;;;;;;;;12.50;9.75;;;;;26.22;43.77;99098.56;5082568;28;8824;-68
2020/12/04 07:37:28;;;;;;;;;9.50;8.75;;;;;26.21;43.93;99090.78;5081964;28;8848;-69
2020/12/04 07:39:56;;;;;;;;;11.75;10.00;;;;;26.22;44.22;99097.75;5074354;28;8942;-68
2020/12/04 07:42:25;;;;;;;;;12.75;11.25;;;;;26.19;43.97;99101.19;5077305;28;8922;-68
2020/12/04 07:44:53;;;;;;;;;10.50;10.00;;;;;26.16;43.82;99107.31;5075608;28;8816;-68
2020/12/04 07:47:22;;;;;;;;;11.00;9.00;;;;;26.01;44.24;99103.59;5073346;28;8840;-69
2020/12/04 07:49:54;;;;;;;;;10.75;9.25;;;;;26.04;43.85;99108.28;5073305;28;8852;-68
2020/12/04 07:52:28;;;;;;;;;8.25;6.75;;;;;26.05;44.46;99106.38;5075663;28;8824;-68
2020/12/04 07:55:07;;;;;;;;;13.75;11.00;;;;;26.07;44.11;99101.38;5069997;28;8828;-69
2020/12/04 07:58:01;;;;;;;;;14.25;9.50;;;;;26.19;44.03;99109.31;5076648;28;8855;-69
2020/12/04 08:00:33;;;;;;;;;12.75;11.75;;;;;26.13;44.03;99087.19;5077535;28;8889;-73
2020/12/04 08:03:10;;;;;;;;;10.25;8.25;;;;;26.26;43.76;99104.78;5071499;28;8876;-74
2020/12/04 08:05:39;;;;;;;;;9.75;9.75;;;;;26.23;44.12;99108.22;5070017;28;8943;-70
2020/12/04 08:08:08;;;;;;;;;11.25;9.00;;;;;26.15;43.95;99097.66;5075605;28;8861;-71
2020/12/04 08:10:37;;;;;;;;;11.75;9.00;;;;;26.06;43.48;99099.81;5070399;28;8835;-69
2020/12/04 08:13:08;;;;;;;;;9.50;9.50;;;;;26.04;42.48;99100.19;5070113;28;8850;-70
2020/12/04 08:15:42;;;;;;;;;10.00;8.00;;;;;26.09;44.21;99102.59;5111484;27;8824;-68
2020/12/04 08:18:10;;;;;;;;;14.25;10.75;;;;;26.17;44.25;99095.38;5080966;28;8816;-69
2020/12/04 08:20:39;;;;;;;;;11.00;8.50;;;;;26.11;43.11;99073.25;5083933;28;8831;-71
2020/12/04 08:23:07;;;;;;;;;12.75;10.75;;;;;26.25;44.32;99092.41;5080261;28;8847;-68
2020/12/04 08:25:36;;;;;;;;;13.75;9.25;;;;;26.29;43.86;99087.84;5073567;28;8844;-69
2020/12/04 08:28:06;;;;;;;;;13.00;11.50;;;;;26.31;43.64;99103.72;5069268;28;8856;-70
2020/12/04 08:30:39;;;;;;;;;12.25;12.25;;;;;26.29;43.66;99106.00;5076203;28;8853;-69
2020/12/04 08:33:07;;;;;;;;;8.25;8.25;;;;;26.20;43.71;99102.75;5076391;28;8844;-71
2020/12/04 08:35:44;;;;;;;;;6.50;4.75;;;;;26.17;43.77;99109.66;5078269;28;8824;-69
2020/12/04 08:38:14;;;;;;;;;12.75;10.75;;;;;26.12;43.12;99106.47;5080797;28;8829;-70
2020/12/04 08:40:52;;;;;;;;;10.50;10.50;;;;;26.08;43.68;99100.25;5077667;28;8847;-70
2020/12/04 08:43:26;;;;;;;;;3.25;3.25;;;;;26.06;43.22;99107.94;5070165;28;8882;-69
2020/12/04 08:45:57;;;;;;;;;12.50;11.00;;;;;26.06;44.04;99097.91;5069980;28;8905;-69
2020/12/04 08:48:29;;;;;;;;;13.25;10.00;;;;;26.10;44.25;99112.25;5083958;28;8845;-69
2020/12/04 08:51:02;;;;;;;;;9.00;9.00;;;;;26.12;44.24;99104.56;5070323;28;9543;-68
2020/12/04 08:53:32;;;;;;;;;14.75;10.00;;;;;26.16;44.13;99112.72;5069907;28;8987;-69
2020/12/04 08:56:03;;;;;;;;;8.50;8.50;;;;;26.17;43.95;99106.97;5069987;28;8938;-69
2020/12/04 08:58:31;;;;;;;;;8.50;8.50;;;;;26.11;44.12;99104.91;5069735;28;8855;-71
2020/12/04 09:01:00;;;;;;;;;11.00;9.50;;;;;26.17;43.90;99112.38;5072058;28;8826;-69
2020/12/04 09:03:30;;;;;;;;;8.67;8.67;;;;;26.12;43.93;99106.47;5069378;28;8852;-69
2020/12/04 09:05:59;;;;;;;;;12.00;11.67;;;;;26.10;43.77;99114.97;5069060;28;9011;-69
2020/12/04 09:08:27;;;;;;;;;14.25;11.25;;;;;25.98;43.78;99112.47;5069521;28;9049;-72
2020/12/04 09:10:55;;;;;;;;;12.00;12.00;;;;;25.99;44.15;99128.31;5082995;28;8855;-69
2020/12/04 09:13:23;;;;;;;;;12.00;10.50;;;;;25.95;44.10;99132.88;5070730;28;8959;-68
2020/12/04 09:15:52;;;;;;;;;19.33;13.33;;;;;25.90;44.10;99133.19;5069968;28;8952;-68
2020/12/04 09:18:21;;;;;;;;;12.75;9.75;;;;;25.89;44.24;99134.31;5071953;28;9184;-69
2020/12/04 09:20:49;;;;;;;;;10.75;10.75;;;;;25.88;43.89;99138.16;5069359;28;8864;-69
2020/12/04 09:23:19;;;;;;;;;12.00;12.00;;;;;25.88;44.38;99143.56;5069486;28;8852;-69
2020/12/04 09:25:48;;;;;;;;;12.67;11.67;;;;;25.90;43.89;99144.00;5069276;28;8921;-70
2020/12/04 09:28:20;;;;;;;;;12.50;10.75;;;;;25.90;43.54;99141.28;5070047;28;8999;-70
2020/12/04 09:30:53;;;;;;;;;10.00;9.33;;;;;25.96;44.56;99147.19;5065484;28;8856;-71
2020/12/04 09:33:35;;;;;;;;;13.33;10.33;;;;;25.93;44.30;99145.97;5065731;28;9096;-69
2020/12/04 09:36:06;;;;;;;;;14.00;13.33;;;;;25.86;44.26;99145.06;5074520;28;8945;-70
2020/12/04 09:38:35;;;;;;;;;13.33;12.00;;;;;25.87;44.63;99152.81;5081761;28;9096;-70
2020/12/04 09:41:04;;;;;;;;;12.25;11.50;;;;;25.81;44.15;99150.75;5063703;28;9022;-69
2020/12/04 09:43:33;;;;;;;;;14.33;12.67;;;;;25.73;43.89;99149.84;5070372;28;8840;-71
2020/12/04 09:46:01;;;;;;;;;23.33;16.33;;;;;25.73;44.40;99154.47;5073989;28;9246;-70
2020/12/04 09:48:34;;;;;;;;;19.33;17.33;;;;;25.68;44.36;99158.25;5074942;28;9325;-71
2020/12/04 09:51:03;;;;;;;;;10.00;5.67;;;;;25.65;44.56;99153.53;5081135;28;9227;-68
2020/12/04 09:53:32;;;;;;;;;16.67;11.67;;;;;25.53;43.99;99151.75;5115226;27;9101;-70
2020/12/04 09:56:01;;;;;;;;;11.33;11.33;;;;;25.58;44.60;99154.16;5068478;28;8949;-69
2020/12/04 09:58:30;;;;;;;;;13.00;10.33;;;;;25.61;44.65;99163.47;5070760;28;8934;-69
2020/12/04 10:00:58;;;;;;;;;13.00;11.33;;;;;25.58;44.32;99162.25;5070163;28;9134;-69
2020/12/04 10:03:27;;;;;;;;;15.33;13.33;;;;;25.49;44.46;99150.09;5096881;28;9241;-70
2020/12/04 10:05:56;;;;;;;;;15.00;13.00;;;;;25.53;44.31;99167.16;5090992;28;9045;-69
2020/12/04 10:08:25;;;;;;;;;12.67;12.67;;;;;25.56;44.19;99177.25;5083477;28;9153;-68
2020/12/04 10:10:53;;;;;;;;;13.67;11.67;;;;;25.55;44.55;99173.78;5078719;28;9136;-68
2020/12/04 10:13:22;;;;;;;;;16.00;13.67;;;;;25.50;44.82;99170.59;5073599;28;9100;-68
2020/12/04 10:15:50;;;;;;;;;12.00;10.67;;;;;25.53;44.51;99186.06;5076345;28;9057;-69
2020/12/04 10:18:19;;;;;;;;;9.33;9.00;;;;;25.38;44.98;99165.31;5085405;28;9163;-68
2020/12/04 10:20:47;;;;;;;;;12.00;10.00;;;;;25.46;44.95;99192.13;5085633;28;9177;-68
2020/12/04 10:23:15;;;;;;;;;15.00;12.67;;;;;25.45;44.62;99189.78;5085020;28;9028;-68
2020/12/04 10:25:44;;;;;;;;;12.33;9.67;;;;;25.44;45.29;99190.91;5082810;28;9068;-68
2020/12/04 10:28:12;;;;;;;;;5.00;5.00;;;;;25.44;44.93;99196.31;5079414;28;8998;-68
2020/12/04 10:30:41;;;;;;;;;12.00;12.00;;;;;25.43;45.02;99200.16;5073358;28;9127;-68
2020/12/04 10:33:10;;;;;;;;;23.00;17.67;;;;;25.38;44.72;99197.72;5073781;28;9013;-68
2020/12/04 10:35:39;;;;;;;;;13.33;13.00;;;;;25.37;45.05;99199.63;5079460;28;9430;-69
2020/12/04 10:38:10;;;;;;;;;15.33;12.00;;;;;25.34;45.43;99211.16;5071326;28;9288;-69
2020/12/04 10:40:39;;;;;;;;;16.00;15.33;;;;;25.31;45.11;99209.16;5072745;28;9057;-68
2020/12/04 10:43:08;;;;;;;;;14.33;13.00;;;;;25.21;45.39;99191.59;5072903;28;9154;-68
2020/12/04 10:45:36;;;;;;;;;16.00;11.67;;;;;25.27;45.08;99211.78;5072905;28;9079;-68
2020/12/04 10:48:04;;;;;;;;;12.33;9.00;;;;;25.24;45.34;99206.28;5072524;28;8993;-68
2020/12/04 10:50:33;;;;;;;;;15.67;12.33;;;;;25.21;44.92;99204.31;5072657;28;9085;-68
2020/12/04 10:53:01;;;;;;;;;12.67;11.67;;;;;25.21;45.24;99202.38;5074031;28;9007;-68
2020/12/04 10:55:30;;;;;;;;;14.67;14.00;;;;;25.16;44.97;99199.19;5074657;28;9225;-68
2020/12/04 10:57:59;;;;;;;;;18.00;13.00;;;;;25.15;45.44;99203.78;5074079;28;8974;-67
2020/12/04 11:00:27;;;;;;;;;12.00;12.00;;;;;25.17;44.89;99209.63;5071777;28;9163;-68
2020/12/04 11:05:45;;;;;;;;;15.00;12.00;;;;;25.08;45.20;99205.56;5071072;28;9071;-68
2020/12/04 11:08:23;;;;;;;;;11.67;11.67;;;;;24.99;45.41;99198.44;5070867;28;9020;-67
2020/12/04 11:10:52;;;;;;;;;10.00;10.00;;;;;25.06;44.88;99215.91;5072530;28;9082;-68
2020/12/04 11:13:23;;;;;;;;;12.00;12.00;;;;;25.01;45.63;99216.97;5072338;28;8989;-67
2020/12/04 11:15:51;;;;;;;;;13.67;13.00;;;;;25.01;45.06;99222.38;5071106;28;9251;-68
2020/12/04 11:18:19;;;;;;;;;14.67;12.67;;;;;24.88;45.40;99210.84;5071306;28;9268;-67
2020/12/04 11:20:48;;;;;;;;;15.00;14.00;;;;;24.91;45.59;99233.66;5072199;28;9953;-67
2020/12/04 11:23:16;;;;;;;;;14.33;13.00;;;;;24.88;45.82;99223.56;5076362;28;9968;-68
2020/12/04 11:25:44;;;;;;;;;13.00;12.00;;;;;24.88;45.60;99243.25;5075295;28;9163;-67
2020/12/04 11:28:13;;;;;;;;;14.33;12.67;;;;;24.82;45.77;99246.56;5081279;28;9167;-68
2020/12/04 11:30:42;;;;;;;;;12.00;12.00;;;;;24.81;45.61;99253.09;5087119;28;9175;-67
2020/12/04 11:33:10;;;;;;;;;12.67;12.67;;;;;24.76;45.69;99258.75;5088215;28;9331;-67
2020/12/04 11:35:38;;;;;;;;;15.50;15.25;;;;;24.74;45.55;99264.47;5081585;28;9178;-67
2020/12/04 11:38:07;;;;;;;;;17.33;13.33;;;;;24.73;45.78;99263.69;5078327;28;9506;-67
2020/12/04 11:40:36;;;;;;;;;14.33;14.33;;;;;24.71;45.52;99260.56;5071217;28;9283;-68
2020/12/04 11:43:06;;;;;;;;;18.00;13.67;;;;;24.73;45.51;99271.00;5069466;28;9693;-67
2020/12/04 11:45:34;;;;;;;;;19.50;18.50;;;;;24.71;45.23;99271.34;5074720;28;9231;-67